sensor_id;sensor_type;location;lat;lon;timestamp;P1;durP1;ratioP1;P2;durP2;ratioP2
58992;SDS011;44782;0.000;0.000;2023-07-08T00:00:16;3.05;;;2.85;;
58992;SDS011;44782;0.000;0.000;2023-07-08T00:02:33;3.60;;;2.80;;
58992;SDS011;44782;0.000;0.000;2023-07-08T00:04:49;2.70;;;2.50;;
58992;SDS011;44782;0.000;0.000;2023-07-08T00:07:05;3.17;;;2.83;;
58992;SDS011;44782;0.000;0.000;2023-07-08T00:09:25;3.25;;;2.90;;
58992;SDS011;44782;0.000;0.000;2023-07-08T00:11:41;3.10;;;2.80;;
58992;SDS011;44782;0.000;0.000;2023-07-08T00:13:57;2.72;;;2.53;;
58992;SDS011;44782;0.000;0.000;2023-07-08T00:16:13;2.80;;;2.60;;
58992;SDS011;44782;0.000;0.000;2023-07-08T00:18:31;2.95;;;2.65;;
58992;SDS011;44782;0.000;0.000;2023-07-08T00:20:48;3.10;;;2.90;;
58992;SDS011;44782;0.000;0.000;2023-07-08T00:23:05;2.90;;;2.70;;
58992;SDS011;44782;0.000;0.000;2023-07-08T00:25:21;2.88;;;2.67;;
58992;SDS011;44782;0.000;0.000;2023-07-08T00:27:36;2.70;;;2.50;;
58992;SDS011;44782;0.000;0.000;2023-07-08T00:29:52;3.13;;;2.38;;
58992;SDS011;44782;0.000;0.000;2023-07-08T00:32:09;3.00;;;2.70;;
58992;SDS011;44782;0.000;0.000;2023-07-08T00:34:29;3.17;;;2.72;;
58992;SDS011;44782;0.000;0.000;2023-07-08T00:36:45;2.97;;;2.78;;
58992;SDS011;44782;0.000;0.000;2023-07-08T00:39:00;3.10;;;2.80;;
58992;SDS011;44782;0.000;0.000;2023-07-08T00:43:40;3.30;;;2.78;;
58992;SDS011;44782;0.000;0.000;2023-07-08T00:48:38;2.85;;;2.65;;
58992;SDS011;44782;0.000;0.000;2023-07-08T00:50:55;3.00;;;2.80;;
58992;SDS011;44782;0.000;0.000;2023-07-08T00:55:41;2.80;;;2.60;;
58992;SDS011;44782;0.000;0.000;2023-07-08T00:57:57;2.80;;;2.60;;
58992;SDS011;44782;0.000;0.000;2023-07-08T01:00:14;2.88;;;2.60;;
58992;SDS011;44782;0.000;0.000;2023-07-08T01:02:33;2.55;;;2.35;;
58992;SDS011;44782;0.000;0.000;2023-07-08T01:04:59;2.80;;;2.60;;
58992;SDS011;44782;0.000;0.000;2023-07-08T01:07:20;2.75;;;2.55;;
58992;SDS011;44782;0.000;0.000;2023-07-08T01:09:37;2.75;;;2.55;;
58992;SDS011;44782;0.000;0.000;2023-07-08T01:12:01;3.00;;;2.80;;
58992;SDS011;44782;0.000;0.000;2023-07-08T01:14:20;2.80;;;2.60;;
58992;SDS011;44782;0.000;0.000;2023-07-08T01:16:38;2.88;;;2.58;;
58992;SDS011;44782;0.000;0.000;2023-07-08T01:18:54;2.63;;;2.42;;
58992;SDS011;44782;0.000;0.000;2023-07-08T01:21:31;3.05;;;2.85;;
58992;SDS011;44782;0.000;0.000;2023-07-08T01:23:49;2.70;;;2.50;;
58992;SDS011;44782;0.000;0.000;2023-07-08T01:26:04;3.13;;;2.80;;
58992;SDS011;44782;0.000;0.000;2023-07-08T01:28:20;2.80;;;2.60;;
58992;SDS011;44782;0.000;0.000;2023-07-08T01:30:36;3.15;;;2.88;;
58992;SDS011;44782;0.000;0.000;2023-07-08T01:32:55;2.63;;;2.42;;
58992;SDS011;44782;0.000;0.000;2023-07-08T01:35:14;3.20;;;2.90;;
58992;SDS011;44782;0.000;0.000;2023-07-08T01:37:37;2.80;;;2.60;;
58992;SDS011;44782;0.000;0.000;2023-07-08T01:40:13;2.67;;;2.47;;
58992;SDS011;44782;0.000;0.000;2023-07-08T01:42:51;3.00;;;2.80;;
58992;SDS011;44782;0.000;0.000;2023-07-08T01:45:14;3.40;;;3.10;;
58992;SDS011;44782;0.000;0.000;2023-07-08T01:47:31;2.70;;;2.50;;
58992;SDS011;44782;0.000;0.000;2023-07-08T01:49:47;2.88;;;2.67;;
58992;SDS011;44782;0.000;0.000;2023-07-08T01:52:04;3.05;;;2.60;;
58992;SDS011;44782;0.000;0.000;2023-07-08T01:54:20;2.95;;;2.75;;
58992;SDS011;44782;0.000;0.000;2023-07-08T01:56:36;3.72;;;2.53;;
58992;SDS011;44782;0.000;0.000;2023-07-08T01:58:52;3.30;;;3.00;;
58992;SDS011;44782;0.000;0.000;2023-07-08T02:01:08;2.95;;;2.47;;
58992;SDS011;44782;0.000;0.000;2023-07-08T02:03:24;3.17;;;2.60;;
58992;SDS011;44782;0.000;0.000;2023-07-08T02:05:41;2.95;;;2.75;;
58992;SDS011;44782;0.000;0.000;2023-07-08T02:10:22;2.88;;;2.60;;
58992;SDS011;44782;0.000;0.000;2023-07-08T02:12:40;3.03;;;2.72;;
58992;SDS011;44782;0.000;0.000;2023-07-08T02:14:55;2.80;;;2.60;;
58992;SDS011;44782;0.000;0.000;2023-07-08T02:17:12;2.60;;;2.40;;
58992;SDS011;44782;0.000;0.000;2023-07-08T02:19:31;2.90;;;2.70;;
58992;SDS011;44782;0.000;0.000;2023-07-08T02:21:47;2.80;;;2.60;;
58992;SDS011;44782;0.000;0.000;2023-07-08T02:24:03;3.17;;;2.88;;
58992;SDS011;44782;0.000;0.000;2023-07-08T02:26:19;3.25;;;2.95;;
58992;SDS011;44782;0.000;0.000;2023-07-08T02:28:34;2.88;;;2.67;;
58992;SDS011;44782;0.000;0.000;2023-07-08T02:30:53;2.83;;;2.63;;
58992;SDS011;44782;0.000;0.000;2023-07-08T02:33:08;3.50;;;2.90;;
58992;SDS011;44782;0.000;0.000;2023-07-08T02:35:25;2.78;;;2.58;;
58992;SDS011;44782;0.000;0.000;2023-07-08T02:37:43;2.85;;;2.65;;
58992;SDS011;44782;0.000;0.000;2023-07-08T02:39:59;3.50;;;3.15;;
58992;SDS011;44782;0.000;0.000;2023-07-08T02:42:15;2.97;;;2.78;;
58992;SDS011;44782;0.000;0.000;2023-07-08T02:44:31;3.10;;;2.90;;
58992;SDS011;44782;0.000;0.000;2023-07-08T02:46:46;2.90;;;2.70;;
58992;SDS011;44782;0.000;0.000;2023-07-08T02:49:02;2.90;;;2.70;;
58992;SDS011;44782;0.000;0.000;2023-07-08T02:51:19;2.90;;;2.70;;
58992;SDS011;44782;0.000;0.000;2023-07-08T02:53:34;3.10;;;2.80;;
58992;SDS011;44782;0.000;0.000;2023-07-08T02:55:50;2.92;;;2.72;;
58992;SDS011;44782;0.000;0.000;2023-07-08T02:58:06;2.83;;;2.63;;
58992;SDS011;44782;0.000;0.000;2023-07-08T03:00:21;3.10;;;2.80;;
58992;SDS011;44782;0.000;0.000;2023-07-08T03:02:37;3.05;;;2.85;;
58992;SDS011;44782;0.000;0.000;2023-07-08T03:04:53;2.95;;;2.75;;
58992;SDS011;44782;0.000;0.000;2023-07-08T03:07:09;2.70;;;2.50;;
58992;SDS011;44782;0.000;0.000;2023-07-08T03:09:26;3.08;;;2.88;;
58992;SDS011;44782;0.000;0.000;2023-07-08T03:11:43;2.92;;;2.72;;
58992;SDS011;44782;0.000;0.000;2023-07-08T03:13:58;3.15;;;2.95;;
58992;SDS011;44782;0.000;0.000;2023-07-08T03:16:14;3.20;;;3.00;;
58992;SDS011;44782;0.000;0.000;2023-07-08T03:18:30;2.92;;;2.72;;
58992;SDS011;44782;0.000;0.000;2023-07-08T03:20:47;2.90;;;2.70;;
58992;SDS011;44782;0.000;0.000;2023-07-08T03:23:03;2.97;;;2.78;;
58992;SDS011;44782;0.000;0.000;2023-07-08T03:25:19;3.00;;;2.80;;
58992;SDS011;44782;0.000;0.000;2023-07-08T03:27:34;3.00;;;2.80;;
58992;SDS011;44782;0.000;0.000;2023-07-08T03:29:50;2.90;;;2.70;;
58992;SDS011;44782;0.000;0.000;2023-07-08T03:32:07;3.15;;;2.95;;
58992;SDS011;44782;0.000;0.000;2023-07-08T03:34:25;2.75;;;2.55;;
58992;SDS011;44782;0.000;0.000;2023-07-08T03:36:42;2.90;;;2.70;;
58992;SDS011;44782;0.000;0.000;2023-07-08T03:39:03;2.88;;;2.67;;
58992;SDS011;44782;0.000;0.000;2023-07-08T03:41:19;2.88;;;2.67;;
58992;SDS011;44782;0.000;0.000;2023-07-08T03:43:35;3.10;;;2.90;;
58992;SDS011;44782;0.000;0.000;2023-07-08T03:45:50;3.00;;;2.80;;
58992;SDS011;44782;0.000;0.000;2023-07-08T03:48:08;2.83;;;2.63;;
58992;SDS011;44782;0.000;0.000;2023-07-08T03:50:26;2.90;;;2.70;;
58992;SDS011;44782;0.000;0.000;2023-07-08T03:52:42;2.90;;;2.70;;
58992;SDS011;44782;0.000;0.000;2023-07-08T03:54:57;3.03;;;2.83;;
58992;SDS011;44782;0.000;0.000;2023-07-08T03:57:13;2.97;;;2.78;;
58992;SDS011;44782;0.000;0.000;2023-07-08T03:59:28;3.20;;;2.90;;
58992;SDS011;44782;0.000;0.000;2023-07-08T04:01:46;2.95;;;2.75;;
58992;SDS011;44782;0.000;0.000;2023-07-08T04:04:02;3.00;;;2.80;;
58992;SDS011;44782;0.000;0.000;2023-07-08T04:06:18;2.95;;;2.75;;
58992;SDS011;44782;0.000;0.000;2023-07-08T04:08:34;2.75;;;2.55;;
58992;SDS011;44782;0.000;0.000;2023-07-08T04:10:50;3.10;;;2.90;;
58992;SDS011;44782;0.000;0.000;2023-07-08T04:13:05;3.10;;;2.90;;
58992;SDS011;44782;0.000;0.000;2023-07-08T04:15:21;2.65;;;2.45;;
58992;SDS011;44782;0.000;0.000;2023-07-08T04:17:41;2.90;;;2.70;;
58992;SDS011;44782;0.000;0.000;2023-07-08T04:20:02;3.10;;;2.90;;
58992;SDS011;44782;0.000;0.000;2023-07-08T04:22:18;3.20;;;2.90;;
58992;SDS011;44782;0.000;0.000;2023-07-08T04:24:34;2.95;;;2.75;;
58992;SDS011;44782;0.000;0.000;2023-07-08T04:26:50;3.00;;;2.80;;
58992;SDS011;44782;0.000;0.000;2023-07-08T04:29:09;2.75;;;2.55;;
58992;SDS011;44782;0.000;0.000;2023-07-08T04:31:26;3.15;;;2.95;;
58992;SDS011;44782;0.000;0.000;2023-07-08T04:33:42;2.97;;;2.78;;
58992;SDS011;44782;0.000;0.000;2023-07-08T04:35:58;3.05;;;2.85;;
58992;SDS011;44782;0.000;0.000;2023-07-08T04:38:17;3.17;;;2.92;;
58992;SDS011;44782;0.000;0.000;2023-07-08T04:40:36;3.10;;;2.90;;
58992;SDS011;44782;0.000;0.000;2023-07-08T04:42:55;3.00;;;2.80;;
58992;SDS011;44782;0.000;0.000;2023-07-08T04:45:10;3.10;;;2.80;;
58992;SDS011;44782;0.000;0.000;2023-07-08T04:47:26;3.25;;;2.95;;
58992;SDS011;44782;0.000;0.000;2023-07-08T04:49:47;3.10;;;2.90;;
58992;SDS011;44782;0.000;0.000;2023-07-08T04:52:03;2.70;;;2.50;;
58992;SDS011;44782;0.000;0.000;2023-07-08T04:54:19;2.95;;;2.75;;
58992;SDS011;44782;0.000;0.000;2023-07-08T04:56:44;3.20;;;3.00;;
58992;SDS011;44782;0.000;0.000;2023-07-08T04:59:01;2.60;;;2.40;;
58992;SDS011;44782;0.000;0.000;2023-07-08T05:01:18;3.10;;;2.90;;
58992;SDS011;44782;0.000;0.000;2023-07-08T05:03:33;2.85;;;2.65;;
58992;SDS011;44782;0.000;0.000;2023-07-08T05:05:49;2.90;;;2.70;;
58992;SDS011;44782;0.000;0.000;2023-07-08T05:08:05;3.30;;;3.00;;
58992;SDS011;44782;0.000;0.000;2023-07-08T05:10:21;3.50;;;3.20;;
58992;SDS011;44782;0.000;0.000;2023-07-08T05:12:37;3.15;;;2.85;;
58992;SDS011;44782;0.000;0.000;2023-07-08T05:14:53;3.15;;;2.88;;
58992;SDS011;44782;0.000;0.000;2023-07-08T05:17:09;3.47;;;3.17;;
58992;SDS011;44782;0.000;0.000;2023-07-08T05:19:25;2.85;;;2.65;;
58992;SDS011;44782;0.000;0.000;2023-07-08T05:21:40;3.42;;;3.13;;
58992;SDS011;44782;0.000;0.000;2023-07-08T05:23:58;3.00;;;2.72;;
58992;SDS011;44782;0.000;0.000;2023-07-08T05:26:14;2.97;;;2.78;;
58992;SDS011;44782;0.000;0.000;2023-07-08T05:28:30;3.40;;;3.00;;
58992;SDS011;44782;0.000;0.000;2023-07-08T05:30:46;3.10;;;2.90;;
58992;SDS011;44782;0.000;0.000;2023-07-08T05:33:02;3.30;;;3.03;;
58992;SDS011;44782;0.000;0.000;2023-07-08T05:35:17;2.90;;;2.70;;
58992;SDS011;44782;0.000;0.000;2023-07-08T05:37:33;3.03;;;2.83;;
58992;SDS011;44782;0.000;0.000;2023-07-08T05:39:48;3.10;;;2.90;;
58992;SDS011;44782;0.000;0.000;2023-07-08T05:42:04;2.80;;;2.60;;
58992;SDS011;44782;0.000;0.000;2023-07-08T05:44:20;3.20;;;2.97;;
58992;SDS011;44782;0.000;0.000;2023-07-08T05:46:37;2.90;;;2.67;;
58992;SDS011;44782;0.000;0.000;2023-07-08T05:48:52;2.95;;;2.75;;
58992;SDS011;44782;0.000;0.000;2023-07-08T05:51:09;3.25;;;2.95;;
58992;SDS011;44782;0.000;0.000;2023-07-08T05:53:24;2.90;;;2.70;;
58992;SDS011;44782;0.000;0.000;2023-07-08T05:55:40;2.95;;;2.75;;
58992;SDS011;44782;0.000;0.000;2023-07-08T05:57:57;3.30;;;3.10;;
58992;SDS011;44782;0.000;0.000;2023-07-08T06:00:13;2.95;;;2.75;;
58992;SDS011;44782;0.000;0.000;2023-07-08T06:02:29;2.78;;;2.58;;
58992;SDS011;44782;0.000;0.000;2023-07-08T06:04:44;3.00;;;2.80;;
58992;SDS011;44782;0.000;0.000;2023-07-08T06:07:00;3.00;;;2.80;;
58992;SDS011;44782;0.000;0.000;2023-07-08T06:09:16;2.85;;;2.65;;
58992;SDS011;44782;0.000;0.000;2023-07-08T06:11:31;3.17;;;2.88;;
58992;SDS011;44782;0.000;0.000;2023-07-08T06:13:47;3.20;;;2.97;;
58992;SDS011;44782;0.000;0.000;2023-07-08T06:16:03;2.85;;;2.65;;
58992;SDS011;44782;0.000;0.000;2023-07-08T06:18:19;3.20;;;3.00;;
58992;SDS011;44782;0.000;0.000;2023-07-08T06:20:34;3.20;;;3.00;;
58992;SDS011;44782;0.000;0.000;2023-07-08T06:22:53;3.00;;;2.80;;
58992;SDS011;44782;0.000;0.000;2023-07-08T06:25:09;3.05;;;2.80;;
58992;SDS011;44782;0.000;0.000;2023-07-08T06:27:25;2.97;;;2.78;;
58992;SDS011;44782;0.000;0.000;2023-07-08T06:29:41;3.20;;;2.90;;
58992;SDS011;44782;0.000;0.000;2023-07-08T06:31:56;2.95;;;2.75;;
58992;SDS011;44782;0.000;0.000;2023-07-08T06:34:12;3.13;;;2.92;;
58992;SDS011;44782;0.000;0.000;2023-07-08T06:36:28;2.97;;;2.78;;
58992;SDS011;44782;0.000;0.000;2023-07-08T06:38:43;2.90;;;2.60;;
58992;SDS011;44782;0.000;0.000;2023-07-08T06:40:59;3.08;;;2.88;;
58992;SDS011;44782;0.000;0.000;2023-07-08T06:43:15;3.00;;;2.70;;
58992;SDS011;44782;0.000;0.000;2023-07-08T06:45:30;3.30;;;3.00;;
58992;SDS011;44782;0.000;0.000;2023-07-08T06:47:46;3.20;;;3.00;;
58992;SDS011;44782;0.000;0.000;2023-07-08T06:50:02;2.83;;;2.63;;
58992;SDS011;44782;0.000;0.000;2023-07-08T06:52:18;2.85;;;2.58;;
58992;SDS011;44782;0.000;0.000;2023-07-08T06:54:33;3.00;;;2.80;;
58992;SDS011;44782;0.000;0.000;2023-07-08T06:56:49;3.00;;;2.80;;
58992;SDS011;44782;0.000;0.000;2023-07-08T06:59:05;3.03;;;2.83;;
58992;SDS011;44782;0.000;0.000;2023-07-08T07:01:21;3.17;;;2.88;;
58992;SDS011;44782;0.000;0.000;2023-07-08T07:03:37;3.03;;;2.78;;
58992;SDS011;44782;0.000;0.000;2023-07-08T07:05:53;3.20;;;2.92;;
58992;SDS011;44782;0.000;0.000;2023-07-08T07:08:08;2.80;;;2.60;;
58992;SDS011;44782;0.000;0.000;2023-07-08T07:10:24;2.83;;;2.50;;
58992;SDS011;44782;0.000;0.000;2023-07-08T07:12:40;3.05;;;2.78;;
58992;SDS011;44782;0.000;0.000;2023-07-08T07:14:55;3.00;;;2.80;;
58992;SDS011;44782;0.000;0.000;2023-07-08T07:17:11;2.95;;;2.75;;
58992;SDS011;44782;0.000;0.000;2023-07-08T07:19:27;3.53;;;2.60;;
58992;SDS011;44782;0.000;0.000;2023-07-08T07:21:42;3.30;;;3.00;;
58992;SDS011;44782;0.000;0.000;2023-07-08T07:23:58;2.90;;;2.70;;
58992;SDS011;44782;0.000;0.000;2023-07-08T07:26:14;2.88;;;2.67;;
58992;SDS011;44782;0.000;0.000;2023-07-08T07:28:30;3.10;;;2.90;;
58992;SDS011;44782;0.000;0.000;2023-07-08T07:30:46;3.03;;;2.80;;
58992;SDS011;44782;0.000;0.000;2023-07-08T07:33:02;2.80;;;2.60;;
58992;SDS011;44782;0.000;0.000;2023-07-08T07:35:17;3.10;;;2.90;;
58992;SDS011;44782;0.000;0.000;2023-07-08T07:37:33;3.03;;;2.83;;
58992;SDS011;44782;0.000;0.000;2023-07-08T07:39:48;3.08;;;2.88;;
58992;SDS011;44782;0.000;0.000;2023-07-08T07:42:04;3.05;;;2.85;;
58992;SDS011;44782;0.000;0.000;2023-07-08T07:44:24;2.85;;;2.65;;
58992;SDS011;44782;0.000;0.000;2023-07-08T07:46:39;2.70;;;2.50;;
58992;SDS011;44782;0.000;0.000;2023-07-08T07:48:55;2.63;;;2.42;;
58992;SDS011;44782;0.000;0.000;2023-07-08T07:51:11;3.25;;;2.95;;
58992;SDS011;44782;0.000;0.000;2023-07-08T07:53:27;3.00;;;2.80;;
58992;SDS011;44782;0.000;0.000;2023-07-08T07:55:43;3.05;;;2.85;;
58992;SDS011;44782;0.000;0.000;2023-07-08T07:57:59;2.80;;;2.60;;
58992;SDS011;44782;0.000;0.000;2023-07-08T08:00:17;2.83;;;2.63;;
58992;SDS011;44782;0.000;0.000;2023-07-08T08:02:32;3.20;;;3.00;;
58992;SDS011;44782;0.000;0.000;2023-07-08T08:04:49;2.88;;;2.67;;
58992;SDS011;44782;0.000;0.000;2023-07-08T08:07:04;2.75;;;2.55;;
58992;SDS011;44782;0.000;0.000;2023-07-08T08:09:22;2.90;;;2.70;;
58992;SDS011;44782;0.000;0.000;2023-07-08T08:11:38;3.08;;;2.88;;
58992;SDS011;44782;0.000;0.000;2023-07-08T08:13:54;2.95;;;2.65;;
58992;SDS011;44782;0.000;0.000;2023-07-08T08:16:09;3.03;;;2.83;;
58992;SDS011;44782;0.000;0.000;2023-07-08T08:18:25;2.80;;;2.60;;
58992;SDS011;44782;0.000;0.000;2023-07-08T08:20:41;2.53;;;2.38;;
58992;SDS011;44782;0.000;0.000;2023-07-08T08:22:56;3.00;;;2.80;;
58992;SDS011;44782;0.000;0.000;2023-07-08T08:25:13;2.85;;;2.65;;
58992;SDS011;44782;0.000;0.000;2023-07-08T08:27:32;3.00;;;2.80;;
58992;SDS011;44782;0.000;0.000;2023-07-08T08:29:48;2.58;;;2.38;;
58992;SDS011;44782;0.000;0.000;2023-07-08T08:32:03;2.78;;;2.58;;
58992;SDS011;44782;0.000;0.000;2023-07-08T08:34:19;2.80;;;2.60;;
58992;SDS011;44782;0.000;0.000;2023-07-08T08:36:35;3.33;;;3.03;;
58992;SDS011;44782;0.000;0.000;2023-07-08T08:38:51;3.00;;;2.80;;
58992;SDS011;44782;0.000;0.000;2023-07-08T08:41:11;2.70;;;2.50;;
58992;SDS011;44782;0.000;0.000;2023-07-08T08:43:38;2.70;;;2.50;;
58992;SDS011;44782;0.000;0.000;2023-07-08T08:46:00;2.42;;;2.22;;
58992;SDS011;44782;0.000;0.000;2023-07-08T08:48:21;2.85;;;2.65;;
58992;SDS011;44782;0.000;0.000;2023-07-08T08:50:39;2.78;;;2.58;;
58992;SDS011;44782;0.000;0.000;2023-07-08T08:53:04;2.70;;;2.50;;
58992;SDS011;44782;0.000;0.000;2023-07-08T08:55:24;2.50;;;2.30;;
58992;SDS011;44782;0.000;0.000;2023-07-08T08:57:42;2.67;;;2.47;;
58992;SDS011;44782;0.000;0.000;2023-07-08T09:00:02;2.90;;;2.70;;
58992;SDS011;44782;0.000;0.000;2023-07-08T09:04:40;2.58;;;2.30;;
58992;SDS011;44782;0.000;0.000;2023-07-08T09:06:59;2.60;;;2.40;;
58992;SDS011;44782;0.000;0.000;2023-07-08T09:09:35;2.90;;;2.70;;
58992;SDS011;44782;0.000;0.000;2023-07-08T09:11:52;2.60;;;2.40;;
58992;SDS011;44782;0.000;0.000;2023-07-08T09:14:16;2.95;;;2.75;;
58992;SDS011;44782;0.000;0.000;2023-07-08T09:19:08;2.60;;;2.40;;
58992;SDS011;44782;0.000;0.000;2023-07-08T09:21:53;2.85;;;2.65;;
58992;SDS011;44782;0.000;0.000;2023-07-08T09:26:47;2.63;;;2.42;;
58992;SDS011;44782;0.000;0.000;2023-07-08T09:29:09;4.40;;;2.08;;
58992;SDS011;44782;0.000;0.000;2023-07-08T09:31:27;2.50;;;2.30;;
58992;SDS011;44782;0.000;0.000;2023-07-08T09:33:45;2.63;;;2.42;;
58992;SDS011;44782;0.000;0.000;2023-07-08T09:36:00;2.45;;;2.25;;
58992;SDS011;44782;0.000;0.000;2023-07-08T09:38:21;2.50;;;2.30;;
58992;SDS011;44782;0.000;0.000;2023-07-08T09:40:37;2.20;;;2.10;;
58992;SDS011;44782;0.000;0.000;2023-07-08T09:42:55;2.60;;;2.40;;
58992;SDS011;44782;0.000;0.000;2023-07-08T09:45:19;2.35;;;2.20;;
58992;SDS011;44782;0.000;0.000;2023-07-08T09:47:37;2.50;;;2.28;;
58992;SDS011;44782;0.000;0.000;2023-07-08T09:49:55;2.35;;;2.15;;
58992;SDS011;44782;0.000;0.000;2023-07-08T09:52:11;2.72;;;2.53;;
58992;SDS011;44782;0.000;0.000;2023-07-08T09:54:28;2.40;;;2.20;;
58992;SDS011;44782;0.000;0.000;2023-07-08T09:57:05;2.85;;;2.20;;
58992;SDS011;44782;0.000;0.000;2023-07-08T09:59:43;2.40;;;2.30;;
58992;SDS011;44782;0.000;0.000;2023-07-08T10:02:03;2.58;;;2.38;;
58992;SDS011;44782;0.000;0.000;2023-07-08T10:04:55;2.55;;;2.42;;
58992;SDS011;44782;0.000;0.000;2023-07-08T10:07:16;2.35;;;2.17;;
58992;SDS011;44782;0.000;0.000;2023-07-08T10:09:32;2.78;;;2.58;;
58992;SDS011;44782;0.000;0.000;2023-07-08T10:11:51;2.40;;;2.20;;
58992;SDS011;44782;0.000;0.000;2023-07-08T10:16:40;2.78;;;2.10;;
58992;SDS011;44782;0.000;0.000;2023-07-08T10:18:56;2.70;;;2.25;;
58992;SDS011;44782;0.000;0.000;2023-07-08T10:26:27;2.00;;;1.90;;
58992;SDS011;44782;0.000;0.000;2023-07-08T10:31:26;2.50;;;2.28;;
58992;SDS011;44782;0.000;0.000;2023-07-08T10:41:24;4.78;;;3.38;;
58992;SDS011;44782;0.000;0.000;2023-07-08T10:51:46;6.47;;;4.32;;
58992;SDS011;44782;0.000;0.000;2023-07-08T10:59:34;5.75;;;4.38;;
58992;SDS011;44782;0.000;0.000;2023-07-08T11:07:32;7.50;;;4.75;;
58992;SDS011;44782;0.000;0.000;2023-07-08T11:10:12;6.43;;;4.93;;
58992;SDS011;44782;0.000;0.000;2023-07-08T11:12:36;7.30;;;5.25;;
58992;SDS011;44782;0.000;0.000;2023-07-08T11:17:42;6.07;;;4.45;;
58992;SDS011;44782;0.000;0.000;2023-07-08T11:22:25;6.95;;;4.97;;
58992;SDS011;44782;0.000;0.000;2023-07-08T11:24:47;5.55;;;4.78;;
58992;SDS011;44782;0.000;0.000;2023-07-08T11:27:07;5.50;;;4.50;;
58992;SDS011;44782;0.000;0.000;2023-07-08T11:29:48;5.93;;;4.70;;
58992;SDS011;44782;0.000;0.000;2023-07-08T11:32:13;6.38;;;4.53;;
58992;SDS011;44782;0.000;0.000;2023-07-08T11:34:32;6.05;;;4.63;;
58992;SDS011;44782;0.000;0.000;2023-07-08T11:36:49;6.35;;;4.47;;
58992;SDS011;44782;0.000;0.000;2023-07-08T11:39:25;5.50;;;4.53;;
58992;SDS011;44782;0.000;0.000;2023-07-08T11:41:53;7.22;;;4.90;;
58992;SDS011;44782;0.000;0.000;2023-07-08T11:44:20;5.25;;;4.13;;
58992;SDS011;44782;0.000;0.000;2023-07-08T11:46:35;5.68;;;4.90;;
58992;SDS011;44782;0.000;0.000;2023-07-08T11:49:13;6.05;;;4.90;;
58992;SDS011;44782;0.000;0.000;2023-07-08T11:51:31;6.72;;;4.72;;
58992;SDS011;44782;0.000;0.000;2023-07-08T11:53:51;6.85;;;5.00;;
58992;SDS011;44782;0.000;0.000;2023-07-08T11:56:19;6.90;;;4.70;;
58992;SDS011;44782;0.000;0.000;2023-07-08T12:01:16;5.93;;;4.45;;
58992;SDS011;44782;0.000;0.000;2023-07-08T12:03:47;6.00;;;4.68;;
58992;SDS011;44782;0.000;0.000;2023-07-08T12:08:42;6.38;;;4.50;;
58992;SDS011;44782;0.000;0.000;2023-07-08T12:10:58;7.40;;;5.03;;
58992;SDS011;44782;0.000;0.000;2023-07-08T12:13:16;4.97;;;4.47;;
58992;SDS011;44782;0.000;0.000;2023-07-08T12:15:36;6.88;;;4.53;;
58992;SDS011;44782;0.000;0.000;2023-07-08T12:17:53;6.00;;;4.60;;
58992;SDS011;44782;0.000;0.000;2023-07-08T12:20:32;5.53;;;4.57;;
58992;SDS011;44782;0.000;0.000;2023-07-08T12:22:51;4.85;;;3.90;;
58992;SDS011;44782;0.000;0.000;2023-07-08T12:25:09;5.45;;;4.78;;
58992;SDS011;44782;0.000;0.000;2023-07-08T12:27:32;5.57;;;4.45;;
58992;SDS011;44782;0.000;0.000;2023-07-08T12:29:47;5.65;;;3.90;;
58992;SDS011;44782;0.000;0.000;2023-07-08T12:32:04;5.35;;;4.07;;
58992;SDS011;44782;0.000;0.000;2023-07-08T12:34:20;5.60;;;4.20;;
58992;SDS011;44782;0.000;0.000;2023-07-08T12:36:38;5.82;;;4.53;;
58992;SDS011;44782;0.000;0.000;2023-07-08T12:38:55;5.20;;;4.70;;
58992;SDS011;44782;0.000;0.000;2023-07-08T12:41:16;5.35;;;4.13;;
58992;SDS011;44782;0.000;0.000;2023-07-08T12:43:37;4.57;;;4.10;;
58992;SDS011;44782;0.000;0.000;2023-07-08T12:45:53;6.10;;;4.30;;
58992;SDS011;44782;0.000;0.000;2023-07-08T12:48:12;4.65;;;4.03;;
58992;SDS011;44782;0.000;0.000;2023-07-08T12:50:28;5.32;;;4.10;;
58992;SDS011;44782;0.000;0.000;2023-07-08T12:52:44;5.32;;;4.18;;
58992;SDS011;44782;0.000;0.000;2023-07-08T12:57:19;5.30;;;4.35;;
58992;SDS011;44782;0.000;0.000;2023-07-08T12:59:35;6.00;;;4.15;;
58992;SDS011;44782;0.000;0.000;2023-07-08T13:01:51;4.68;;;4.20;;
58992;SDS011;44782;0.000;0.000;2023-07-08T13:04:09;5.07;;;4.30;;
58992;SDS011;44782;0.000;0.000;2023-07-08T13:06:28;4.93;;;3.85;;
58992;SDS011;44782;0.000;0.000;2023-07-08T13:08:45;5.13;;;4.30;;
58992;SDS011;44782;0.000;0.000;2023-07-08T13:11:01;4.78;;;4.20;;
58992;SDS011;44782;0.000;0.000;2023-07-08T13:13:20;5.43;;;4.13;;
58992;SDS011;44782;0.000;0.000;2023-07-08T13:15:38;4.63;;;3.92;;
58992;SDS011;44782;0.000;0.000;2023-07-08T13:17:56;4.53;;;4.03;;
58992;SDS011;44782;0.000;0.000;2023-07-08T13:20:13;4.78;;;4.13;;
58992;SDS011;44782;0.000;0.000;2023-07-08T13:22:30;4.32;;;3.92;;
58992;SDS011;44782;0.000;0.000;2023-07-08T13:24:46;4.30;;;3.63;;
58992;SDS011;44782;0.000;0.000;2023-07-08T13:27:04;4.43;;;4.00;;
58992;SDS011;44782;0.000;0.000;2023-07-08T13:29:23;4.72;;;3.90;;
58992;SDS011;44782;0.000;0.000;2023-07-08T13:31:41;4.10;;;3.55;;
58992;SDS011;44782;0.000;0.000;2023-07-08T13:34:09;4.38;;;3.85;;
58992;SDS011;44782;0.000;0.000;2023-07-08T13:36:34;4.70;;;4.03;;
58992;SDS011;44782;0.000;0.000;2023-07-08T13:38:51;4.43;;;3.63;;
58992;SDS011;44782;0.000;0.000;2023-07-08T13:41:07;4.18;;;3.70;;
58992;SDS011;44782;0.000;0.000;2023-07-08T13:43:28;4.30;;;3.90;;
58992;SDS011;44782;0.000;0.000;2023-07-08T13:45:46;4.70;;;3.47;;
58992;SDS011;44782;0.000;0.000;2023-07-08T13:48:13;3.85;;;3.50;;
58992;SDS011;44782;0.000;0.000;2023-07-08T13:50:49;4.07;;;3.67;;
58992;SDS011;44782;0.000;0.000;2023-07-08T13:53:18;4.90;;;3.67;;
58992;SDS011;44782;0.000;0.000;2023-07-08T13:55:36;4.15;;;3.75;;
58992;SDS011;44782;0.000;0.000;2023-07-08T13:57:59;4.38;;;3.70;;
58992;SDS011;44782;0.000;0.000;2023-07-08T14:00:16;4.45;;;3.60;;
58992;SDS011;44782;0.000;0.000;2023-07-08T14:02:32;4.55;;;3.72;;
58992;SDS011;44782;0.000;0.000;2023-07-08T14:04:50;5.07;;;3.53;;
58992;SDS011;44782;0.000;0.000;2023-07-08T14:07:21;3.75;;;3.30;;
58992;SDS011;44782;0.000;0.000;2023-07-08T14:09:38;3.75;;;3.40;;
58992;SDS011;44782;0.000;0.000;2023-07-08T14:11:54;4.13;;;3.72;;
58992;SDS011;44782;0.000;0.000;2023-07-08T14:14:10;3.97;;;3.63;;
58992;SDS011;44782;0.000;0.000;2023-07-08T14:16:28;3.50;;;3.20;;
58992;SDS011;44782;0.000;0.000;2023-07-08T14:18:45;5.25;;;3.75;;
58992;SDS011;44782;0.000;0.000;2023-07-08T14:21:03;3.95;;;3.55;;
58992;SDS011;44782;0.000;0.000;2023-07-08T14:23:19;3.88;;;3.47;;
58992;SDS011;44782;0.000;0.000;2023-07-08T14:25:35;3.90;;;3.50;;
58992;SDS011;44782;0.000;0.000;2023-07-08T14:27:51;3.60;;;3.30;;
58992;SDS011;44782;0.000;0.000;2023-07-08T14:30:08;3.28;;;2.97;;
58992;SDS011;44782;0.000;0.000;2023-07-08T14:32:26;3.90;;;3.30;;
58992;SDS011;44782;0.000;0.000;2023-07-08T14:34:48;3.78;;;3.40;;
58992;SDS011;44782;0.000;0.000;2023-07-08T14:37:12;3.38;;;3.03;;
58992;SDS011;44782;0.000;0.000;2023-07-08T14:39:29;4.00;;;3.58;;
58992;SDS011;44782;0.000;0.000;2023-07-08T14:41:46;3.70;;;3.40;;
58992;SDS011;44782;0.000;0.000;2023-07-08T14:44:08;4.68;;;3.78;;
58992;SDS011;44782;0.000;0.000;2023-07-08T14:46:32;4.40;;;3.42;;
58992;SDS011;44782;0.000;0.000;2023-07-08T14:48:48;3.97;;;3.10;;
58992;SDS011;44782;0.000;0.000;2023-07-08T14:51:04;5.30;;;3.40;;
58992;SDS011;44782;0.000;0.000;2023-07-08T14:53:19;3.80;;;3.40;;
58992;SDS011;44782;0.000;0.000;2023-07-08T14:55:35;3.95;;;3.28;;
58992;SDS011;44782;0.000;0.000;2023-07-08T14:57:51;3.33;;;3.00;;
58992;SDS011;44782;0.000;0.000;2023-07-08T15:00:09;4.05;;;3.65;;
58992;SDS011;44782;0.000;0.000;2023-07-08T15:02:26;3.72;;;3.22;;
58992;SDS011;44782;0.000;0.000;2023-07-08T15:04:42;3.03;;;2.72;;
58992;SDS011;44782;0.000;0.000;2023-07-08T15:06:58;3.45;;;3.15;;
58992;SDS011;44782;0.000;0.000;2023-07-08T15:09:17;3.20;;;2.90;;
58992;SDS011;44782;0.000;0.000;2023-07-08T15:11:33;3.67;;;3.00;;